createdAt,value
2022-10-11T00:00:38.599Z,13.43
2022-10-11T00:01:35.424Z,17.65
2022-10-11T00:02:32.119Z,13.52
2022-10-11T00:03:28.956Z,14.55
2022-10-11T00:04:25.761Z,19.00
2022-10-11T00:05:22.475Z,19.55
2022-10-11T00:06:19.032Z,13.25
2022-10-11T00:07:15.847Z,13.45
2022-10-11T00:08:13.708Z,9.32
2022-10-11T00:09:11.666Z,11.95
2022-10-11T00:10:09.404Z,18.27
2022-10-11T00:11:07.751Z,15.20
2022-10-11T00:12:04.513Z,17.33
2022-10-11T00:13:01.262Z,15.00
2022-10-11T00:13:58.995Z,16.00
2022-10-11T00:14:55.637Z,17.63
2022-10-11T00:15:52.535Z,15.38
2022-10-11T00:16:49.144Z,16.80
2022-10-11T00:17:46.036Z,14.02
2022-10-11T00:18:42.716Z,14.35
2022-10-11T00:19:39.268Z,17.20
2022-10-11T00:20:35.829Z,11.02
2022-10-11T00:21:32.483Z,17.23
2022-10-11T00:22:29.180Z,12.10
2022-10-11T00:23:25.790Z,17.70
2022-10-11T00:24:22.424Z,15.20
2022-10-11T00:25:19.366Z,11.35
2022-10-11T00:26:18.482Z,14.20
2022-10-11T00:27:15.288Z,12.90
2022-10-11T00:28:11.899Z,13.13
2022-10-11T00:29:08.646Z,15.05
2022-10-11T00:30:09.821Z,18.08
2022-10-11T00:31:11.344Z,14.65
2022-10-11T00:32:08.075Z,10.70
2022-10-11T00:33:04.637Z,17.88
2022-10-11T00:34:01.317Z,15.63
2022-10-11T00:34:59.806Z,17.83
2022-10-11T00:35:56.433Z,21.25
2022-10-11T00:36:53.055Z,16.52
2022-10-11T00:37:49.688Z,13.40
2022-10-11T00:38:46.930Z,18.17
2022-10-11T00:39:43.523Z,12.52
2022-10-11T00:40:40.281Z,11.02
2022-10-11T00:41:36.936Z,14.85
2022-10-11T00:42:33.824Z,17.92
2022-10-11T00:43:32.680Z,12.43
2022-10-11T00:44:32.649Z,16.60
2022-10-11T00:45:32.213Z,16.25
2022-10-11T00:46:31.199Z,15.55
2022-10-11T00:47:27.866Z,20.00
2022-10-11T00:48:40.036Z,24.02
2022-10-11T00:49:41.254Z,16.48
2022-10-11T00:50:37.915Z,15.43
2022-10-11T00:51:47.706Z,12.63
2022-10-11T00:52:56.562Z,14.60
2022-10-11T00:53:53.996Z,16.27
2022-10-11T00:54:51.221Z,14.48
2022-10-11T00:55:56.312Z,16.88
2022-10-11T00:56:58.674Z,14.73
2022-10-11T00:57:57.908Z,16.13
2022-10-11T00:58:55.880Z,19.75
2022-10-11T00:59:55.036Z,18.88
2022-10-11T01:00:52.246Z,16.73
2022-10-11T01:01:49.435Z,15.65
2022-10-11T01:02:47.119Z,17.73
2022-10-11T01:03:44.862Z,15.55
2022-10-11T01:04:42.200Z,11.85
2022-10-11T01:05:40.081Z,23.50
2022-10-11T01:06:36.722Z,16.63
2022-10-11T01:07:34.354Z,14.02
2022-10-11T01:08:31.571Z,13.60
2022-10-11T01:09:29.629Z,24.35
2022-10-11T01:10:27.815Z,19.83
2022-10-11T01:11:27.650Z,23.85
2022-10-11T01:12:27.464Z,19.50
2022-10-11T01:13:42.745Z,20.23
2022-10-11T01:14:53.133Z,17.10
2022-10-11T01:16:06.405Z,16.02
2022-10-11T01:17:44.287Z,20.50
2022-10-11T01:19:03.824Z,16.55
2022-10-11T01:20:25.265Z,18.70
2022-10-11T01:21:27.965Z,23.63
2022-10-11T01:22:33.224Z,13.30
2022-10-11T01:23:41.702Z,19.70
2022-10-11T01:24:38.242Z,14.13
2022-10-11T01:26:02.964Z,14.77
2022-10-11T01:26:59.817Z,14.18
2022-10-11T01:27:56.498Z,18.92
2022-10-11T01:29:14.900Z,11.35
2022-10-11T01:30:34.209Z,21.73
2022-10-11T01:31:58.935Z,17.00
2022-10-11T01:33:11.053Z,11.52
2022-10-11T01:34:19.625Z,13.15
2022-10-11T01:35:21.966Z,13.70
2022-10-11T01:36:31.399Z,13.93
2022-10-11T01:37:52.327Z,15.88
2022-10-11T01:38:59.674Z,13.20
2022-10-11T01:40:05.034Z,16.33
2022-10-11T01:41:13.859Z,12.32
2022-10-11T01:42:13.355Z,14.95
2022-10-11T01:43:10.260Z,16.20
2022-10-11T01:44:09.358Z,10.65
2022-10-11T01:45:09.697Z,11.27
2022-10-11T01:46:08.839Z,16.30
2022-10-11T01:47:05.765Z,13.75
2022-10-11T01:48:11.704Z,18.02
2022-10-11T01:49:09.185Z,13.98
2022-10-11T01:50:33.198Z,12.65
2022-10-11T01:51:47.480Z,15.52
2022-10-11T01:52:45.391Z,16.02
2022-10-11T01:54:00.536Z,12.60
2022-10-11T01:55:18.794Z,12.40
2022-10-11T01:56:30.297Z,12.60
2022-10-11T01:57:45.600Z,19.20
2022-10-11T01:59:00.276Z,15.88
2022-10-11T02:00:19.400Z,13.45
2022-10-11T02:01:47.168Z,11.98
2022-10-11T02:03:15.745Z,10.93
2022-10-11T02:04:40.252Z,18.60
2022-10-11T02:06:01.253Z,17.77
2022-10-11T02:07:01.376Z,15.02
2022-10-11T02:08:15.861Z,16.42
2022-10-11T02:09:20.838Z,16.27
2022-10-11T02:10:27.015Z,15.10
2022-10-11T02:11:29.698Z,16.15
2022-10-11T02:12:58.016Z,13.85
2022-10-11T02:14:00.597Z,10.77
2022-10-11T02:15:57.428Z,15.40
2022-10-11T02:17:19.469Z,16.33
2022-10-11T02:18:20.740Z,12.32
2022-10-11T02:19:21.871Z,13.93
2022-10-11T02:20:23.481Z,18.95
2022-10-11T02:21:23.033Z,18.63
2022-10-11T02:22:28.483Z,15.27
2022-10-11T02:23:33.226Z,20.17
2022-10-11T02:24:33.754Z,14.57
2022-10-11T02:25:34.481Z,21.25
2022-10-11T02:26:33.181Z,14.65
2022-10-11T02:27:33.234Z,22.27
2022-10-11T02:28:33.608Z,15.55
2022-10-11T02:29:33.796Z,16.45
2022-10-11T02:30:31.212Z,15.93
2022-10-11T02:31:31.269Z,14.55
2022-10-11T02:32:30.361Z,14.82
2022-10-11T02:33:33.588Z,14.35
2022-10-11T02:34:37.455Z,15.75
2022-10-11T02:35:39.264Z,13.85
2022-10-11T02:37:10.411Z,16.17
2022-10-11T02:38:19.748Z,14.82
2022-10-11T02:39:23.492Z,17.02
2022-10-11T02:40:23.965Z,17.08
2022-10-11T02:41:30.067Z,19.63
2022-10-11T02:42:37.338Z,21.88
2022-10-11T02:43:39.819Z,18.45
2022-10-11T02:45:39.715Z,19.20
2022-10-11T02:46:38.275Z,16.10
2022-10-11T02:47:35.238Z,17.67
2022-10-11T02:48:33.661Z,14.60
2022-10-11T02:49:32.161Z,20.42
2022-10-11T02:50:29.077Z,21.90
2022-10-11T02:51:27.317Z,20.38
2022-10-11T02:52:23.859Z,18.85
2022-10-11T02:53:21.344Z,20.63
2022-10-11T02:54:18.094Z,13.43
2022-10-11T02:55:14.756Z,25.23
2022-10-11T02:56:11.377Z,17.13
2022-10-11T02:57:08.169Z,19.15
2022-10-11T02:58:04.775Z,27.42
2022-10-11T02:59:01.515Z,23.88
2022-10-11T02:59:58.144Z,18.73
2022-10-11T03:00:54.813Z,16.10
2022-10-11T03:01:51.469Z,16.98
2022-10-11T03:02:48.171Z,22.55
2022-10-11T03:03:44.821Z,27.48
2022-10-11T03:04:41.616Z,23.08
2022-10-11T03:05:41.540Z,24.98
2022-10-11T03:06:38.273Z,22.85
2022-10-11T03:07:34.922Z,21.23
2022-10-11T03:08:31.543Z,23.95
2022-10-11T03:09:28.164Z,20.17
2022-10-11T03:10:24.832Z,20.20
2022-10-11T03:11:21.564Z,26.42
2022-10-11T03:12:18.198Z,21.50
2022-10-11T03:13:18.147Z,18.40
2022-10-11T03:14:15.144Z,23.48
2022-10-11T03:15:11.726Z,23.73
2022-10-11T03:16:08.796Z,18.40
2022-10-11T03:17:24.090Z,20.55
2022-10-11T03:18:22.231Z,24.60
2022-10-11T03:19:19.495Z,22.30
2022-10-11T03:20:18.476Z,21.42
2022-10-11T03:21:15.135Z,27.45
2022-10-11T03:22:11.800Z,23.55
2022-10-11T03:23:08.584Z,24.20
2022-10-11T03:24:05.524Z,30.42
2022-10-11T03:25:04.399Z,22.90
2022-10-11T03:26:01.529Z,24.48
2022-10-11T03:26:58.244Z,23.35
2022-10-11T03:27:54.843Z,24.67
2022-10-11T03:28:51.699Z,22.33
2022-10-11T03:29:48.335Z,28.88
2022-10-11T03:30:48.358Z,28.17
2022-10-11T03:31:44.922Z,19.02
2022-10-11T03:32:41.573Z,24.20
2022-10-11T03:33:38.375Z,32.08
2022-10-11T03:34:35.093Z,26.13
2022-10-11T03:35:31.675Z,31.30
2022-10-11T03:36:28.313Z,21.15
2022-10-11T03:37:25.499Z,29.02
2022-10-11T03:38:22.784Z,25.40
2022-10-11T03:39:19.765Z,25.35
2022-10-11T03:40:16.321Z,25.92
2022-10-11T03:41:12.961Z,26.70
2022-10-11T03:42:09.525Z,24.17
2022-10-11T03:43:06.115Z,25.33
2022-10-11T03:44:02.734Z,27.65
2022-10-11T03:45:01.729Z,23.50
2022-10-11T03:45:58.332Z,24.25
2022-10-11T03:46:54.919Z,21.88
2022-10-11T03:47:51.496Z,34.17
2022-10-11T03:48:48.670Z,24.38
2022-10-11T03:49:45.265Z,31.63
2022-10-11T03:50:42.406Z,23.55
2022-10-11T03:51:39.052Z,19.48
2022-10-11T03:52:36.439Z,24.90
2022-10-11T03:53:33.101Z,23.60
2022-10-11T03:54:29.701Z,22.48
2022-10-11T03:55:26.612Z,19.63
2022-10-11T03:56:23.180Z,26.73
2022-10-11T03:57:20.113Z,23.20
2022-10-11T03:58:16.708Z,26.90
2022-10-11T03:59:13.334Z,21.85
2022-10-11T04:00:10.309Z,28.50
2022-10-11T04:01:07.250Z,23.88
2022-10-11T04:02:04.479Z,25.95
2022-10-11T04:03:03.710Z,22.13
2022-10-11T04:04:00.345Z,25.10
2022-10-11T04:04:56.992Z,20.83
2022-10-11T04:05:53.689Z,23.17
2022-10-11T04:06:50.340Z,26.00
2022-10-11T04:07:46.979Z,25.20
2022-10-11T04:08:43.641Z,20.23
2022-10-11T04:09:40.306Z,27.02
2022-10-11T04:10:36.963Z,27.80
2022-10-11T04:11:33.559Z,22.40
2022-10-11T04:12:30.241Z,26.92
2022-10-11T04:13:26.815Z,23.50
2022-10-11T04:14:23.416Z,24.42
2022-10-11T04:15:20.301Z,24.67
2022-10-11T04:16:16.907Z,21.67
2022-10-11T04:17:13.483Z,23.38
2022-10-11T04:18:10.272Z,21.20
2022-10-11T04:19:07.098Z,27.75
2022-10-11T04:20:04.061Z,24.83
2022-10-11T04:21:00.651Z,17.85
2022-10-11T04:21:57.242Z,25.33
2022-10-11T04:22:53.819Z,21.30
2022-10-11T04:23:50.634Z,20.05
2022-10-11T04:24:47.234Z,24.13
2022-10-11T04:25:45.498Z,20.17
2022-10-11T04:26:42.140Z,21.77
2022-10-11T04:27:38.892Z,26.50
2022-10-11T04:28:36.286Z,19.90
2022-10-11T04:29:33.259Z,22.30
2022-10-11T04:30:29.994Z,23.52
2022-10-11T04:31:26.867Z,22.40
2022-10-11T04:32:23.995Z,21.80
2022-10-11T04:33:20.750Z,29.75
2022-10-11T04:34:17.872Z,23.38
2022-10-11T04:35:15.028Z,27.60
2022-10-11T04:36:12.133Z,20.55
2022-10-11T04:37:08.697Z,23.50
2022-10-11T04:38:05.394Z,22.92
2022-10-11T04:39:02.138Z,23.60
2022-10-11T04:39:58.740Z,19.58
2022-10-11T04:40:55.487Z,19.35
2022-10-11T04:41:52.149Z,23.92
2022-10-11T04:42:50.606Z,22.17
2022-10-11T04:43:47.393Z,24.08
2022-10-11T04:44:43.957Z,23.52
2022-10-11T04:45:40.544Z,29.95
2022-10-11T04:46:37.125Z,26.83
2022-10-11T04:47:33.783Z,21.85
2022-10-11T04:48:31.146Z,23.92
2022-10-11T04:49:27.685Z,28.42
2022-10-11T04:50:24.393Z,24.75
2022-10-11T04:51:21.199Z,27.92
2022-10-11T04:52:20.158Z,23.08
2022-10-11T04:53:20.185Z,25.45
2022-10-11T04:54:16.811Z,26.33
2022-10-11T04:55:13.442Z,26.90
2022-10-11T04:56:11.575Z,31.98
2022-10-11T04:57:08.374Z,36.47
2022-10-11T04:58:04.930Z,26.40
2022-10-11T04:59:01.495Z,30.27
2022-10-11T04:59:58.060Z,34.88
2022-10-11T05:00:55.234Z,34.17
2022-10-11T05:01:51.841Z,30.98
2022-10-11T05:02:48.793Z,38.03
2022-10-11T05:03:45.384Z,28.27
2022-10-11T05:04:42.864Z,23.83
2022-10-11T05:05:39.443Z,40.20
2022-10-11T05:06:36.054Z,31.00
2022-10-11T05:07:32.764Z,29.30
2022-10-11T05:08:29.424Z,36.13
2022-10-11T05:09:26.002Z,33.75
2022-10-11T05:10:22.572Z,39.00
2022-10-11T05:11:19.469Z,40.80
2022-10-11T05:12:16.093Z,33.33
2022-10-11T05:13:12.690Z,35.47
2022-10-11T05:14:09.355Z,35.13
2022-10-11T05:15:06.786Z,37.63
2022-10-11T05:16:10.294Z,30.65
2022-10-11T05:17:07.668Z,33.50
2022-10-11T05:18:04.298Z,40.72
2022-10-11T05:19:00.982Z,32.50
2022-10-11T05:19:57.576Z,36.75
2022-10-11T05:21:06.112Z,36.90
2022-10-11T05:22:02.844Z,36.17
2022-10-11T05:22:59.484Z,29.92
2022-10-11T05:23:57.077Z,27.10
2022-10-11T05:24:53.704Z,33.78
2022-10-11T05:25:50.271Z,32.28
2022-10-11T05:26:46.926Z,39.83
2022-10-11T05:27:43.556Z,33.15
2022-10-11T05:28:40.259Z,35.05
2022-10-11T05:29:36.894Z,32.30
2022-10-11T05:30:33.969Z,38.58
2022-10-11T05:31:30.612Z,36.08
2022-10-11T05:32:28.111Z,34.08
2022-10-11T05:33:25.142Z,34.33
2022-10-11T05:34:21.906Z,37.05
2022-10-11T05:35:18.557Z,40.25
2022-10-11T05:36:15.397Z,41.58
2022-10-11T05:37:11.994Z,33.63
2022-10-11T05:38:08.562Z,35.42
2022-10-11T05:39:05.247Z,32.10
2022-10-11T05:40:01.904Z,33.53
2022-10-11T05:41:03.474Z,28.55
2022-10-11T05:42:00.140Z,34.67
2022-10-11T05:42:56.729Z,29.48
2022-10-11T05:43:53.324Z,30.17
2022-10-11T05:44:49.960Z,43.83
2022-10-11T05:45:46.614Z,30.60
2022-10-11T05:46:43.276Z,29.35
2022-10-11T05:47:39.827Z,38.95
2022-10-11T05:48:36.534Z,30.20
2022-10-11T05:49:33.197Z,32.13
2022-10-11T05:50:30.228Z,28.48
2022-10-11T05:51:26.805Z,33.80
2022-10-11T05:52:23.520Z,39.83
2022-10-11T05:53:20.121Z,34.30
2022-10-11T05:54:16.693Z,42.47
2022-10-11T05:55:13.397Z,34.17
2022-10-11T05:56:22.667Z,34.85
2022-10-11T05:57:19.288Z,39.35
2022-10-11T05:58:18.564Z,39.40
2022-10-11T05:59:15.176Z,35.92
2022-10-11T06:00:12.114Z,38.08
2022-10-11T06:01:16.599Z,34.45
2022-10-11T06:02:13.575Z,36.75
2022-10-11T06:03:12.375Z,33.90
2022-10-11T06:04:09.212Z,37.60
2022-10-11T06:05:06.087Z,36.95
2022-10-11T06:06:03.305Z,35.90
2022-10-11T06:06:59.945Z,40.83
2022-10-11T06:07:58.295Z,35.38
2022-10-11T06:08:55.282Z,38.80
2022-10-11T06:09:52.078Z,33.97
2022-10-11T06:10:48.618Z,37.35
2022-10-11T06:11:45.571Z,173.23
2022-10-11T06:12:42.148Z,204.80
2022-10-11T06:13:38.835Z,51.35
2022-10-11T06:14:36.078Z,51.00
2022-10-11T06:15:33.373Z,68.03
2022-10-11T06:16:29.949Z,117.07
2022-10-11T06:17:26.889Z,81.93
2022-10-11T06:18:23.459Z,60.22
2022-10-11T06:19:20.014Z,180.85
2022-10-11T06:20:17.052Z,139.38
2022-10-11T06:21:13.814Z,115.40
2022-10-11T06:22:12.294Z,72.72
2022-10-11T06:23:08.918Z,95.78
2022-10-11T06:24:06.236Z,115.10
2022-10-11T06:25:02.851Z,69.15
2022-10-11T06:26:01.560Z,66.95
2022-10-11T06:26:58.311Z,58.35
2022-10-11T06:27:55.104Z,49.90
2022-10-11T06:28:52.748Z,34.60
2022-10-11T06:29:49.433Z,32.17
2022-10-11T06:30:46.119Z,38.47
2022-10-11T06:31:43.168Z,28.90
2022-10-11T06:32:40.139Z,38.53
2022-10-11T06:33:37.266Z,36.83
2022-10-11T06:34:33.938Z,31.25
2022-10-11T06:35:30.504Z,31.35
2022-10-11T06:36:27.412Z,40.42
2022-10-11T06:37:24.261Z,37.60
2022-10-11T06:38:20.822Z,75.03
2022-10-11T06:39:17.362Z,89.97
2022-10-11T06:40:14.005Z,70.35
2022-10-11T06:41:17.416Z,62.00
2022-10-11T06:42:13.975Z,50.80
2022-10-11T06:43:10.581Z,56.20
2022-10-11T06:44:10.742Z,66.45
2022-10-11T06:45:10.251Z,36.33
2022-10-11T06:46:07.470Z,40.25
2022-10-11T06:47:06.649Z,80.95
2022-10-11T06:48:05.735Z,73.68
2022-10-11T06:49:02.479Z,47.60
2022-10-11T06:49:59.058Z,36.97
2022-10-11T06:51:00.277Z,31.48
2022-10-11T06:51:57.334Z,35.57
2022-10-11T06:52:53.875Z,33.08
2022-10-11T06:53:51.916Z,37.50
2022-10-11T06:54:48.453Z,34.70
2022-10-11T06:55:45.017Z,36.42
2022-10-11T06:56:41.574Z,28.23
2022-10-11T06:57:38.569Z,38.10
2022-10-11T06:58:35.537Z,27.63
2022-10-11T06:59:32.143Z,37.60
2022-10-11T07:00:28.716Z,55.85
2022-10-11T07:01:26.566Z,86.70
2022-10-11T07:02:23.304Z,53.45
2022-10-11T07:03:19.896Z,43.53
2022-10-11T07:04:16.530Z,54.95
2022-10-11T07:05:13.124Z,38.35
2022-10-11T07:06:12.399Z,56.80
2022-10-11T07:07:09.020Z,63.05
2022-10-11T07:08:06.989Z,54.53
2022-10-11T07:09:06.579Z,37.92
2022-10-11T07:10:04.007Z,71.60
2022-10-11T07:11:03.317Z,76.00
2022-10-11T07:12:00.019Z,57.30
2022-10-11T07:12:56.664Z,44.95
2022-10-11T07:13:58.837Z,45.00
2022-10-11T07:14:55.497Z,40.33
2022-10-11T07:15:52.076Z,35.70
2022-10-11T07:16:48.762Z,44.58
2022-10-11T07:17:45.479Z,46.15
2022-10-11T07:18:42.227Z,43.15
2022-10-11T07:19:38.882Z,32.72
2022-10-11T07:20:36.090Z,40.75
2022-10-11T07:21:34.304Z,41.97
2022-10-11T07:22:30.959Z,36.63
2022-10-11T07:23:27.610Z,53.92
2022-10-11T07:24:24.308Z,48.50
2022-10-11T07:25:20.911Z,31.98
2022-10-11T07:26:18.590Z,30.92
2022-10-11T07:27:15.275Z,29.30
2022-10-11T07:28:12.819Z,38.03
2022-10-11T07:29:10.944Z,31.55
2022-10-11T07:30:08.054Z,29.35
2022-10-11T07:31:07.522Z,29.65
2022-10-11T07:32:04.324Z,32.63
2022-10-11T07:33:01.018Z,36.88
2022-10-11T07:33:57.777Z,37.95
2022-10-11T07:34:54.470Z,39.28
2022-10-11T07:35:51.150Z,35.47
2022-10-11T07:36:48.068Z,35.28
2022-10-11T07:37:45.024Z,37.22
2022-10-11T07:38:44.186Z,33.55
2022-10-11T07:39:40.877Z,32.90
2022-10-11T07:40:45.512Z,43.80
2022-10-11T07:41:45.925Z,35.58
2022-10-11T07:42:42.747Z,31.80
2022-10-11T07:43:39.718Z,34.22
2022-10-11T07:44:36.649Z,36.90
2022-10-11T07:45:33.400Z,29.73
2022-10-11T07:46:30.172Z,33.05
2022-10-11T07:47:26.739Z,37.72
2022-10-11T07:48:23.459Z,30.98
2022-10-11T07:49:20.125Z,30.42
2022-10-11T07:50:16.959Z,37.53
2022-10-11T07:51:17.257Z,42.67
2022-10-11T07:52:13.904Z,32.38
2022-10-11T07:53:10.511Z,27.20
2022-10-11T07:54:07.560Z,33.47
2022-10-11T07:55:04.866Z,29.55
2022-10-11T07:56:02.323Z,48.38
2022-10-11T07:56:59.506Z,40.75
2022-10-11T07:57:57.033Z,30.63
2022-10-11T07:58:56.242Z,35.67
2022-10-11T07:59:52.848Z,36.15
2022-10-11T08:00:53.613Z,39.67
2022-10-11T08:01:50.418Z,33.33
2022-10-11T08:02:47.223Z,32.20
2022-10-11T08:03:44.050Z,33.67
2022-10-11T08:04:40.631Z,30.08
2022-10-11T08:05:39.119Z,34.22
2022-10-11T08:06:36.655Z,32.30
2022-10-11T08:07:33.311Z,42.08
2022-10-11T08:08:31.032Z,40.38
2022-10-11T08:09:27.693Z,82.22
2022-10-11T08:10:25.833Z,43.25
2022-10-11T08:11:28.981Z,35.25
2022-10-11T08:12:25.575Z,33.03
2022-10-11T08:13:22.229Z,32.75
2022-10-11T08:14:19.090Z,31.35
2022-10-11T08:15:16.541Z,36.85
2022-10-11T08:16:13.479Z,32.13
2022-10-11T08:17:10.204Z,35.92
2022-10-11T08:18:06.787Z,32.47
2022-10-11T08:19:03.507Z,31.58
2022-10-11T08:20:00.543Z,32.45
2022-10-11T08:20:57.216Z,37.28
2022-10-11T08:21:53.865Z,35.88
2022-10-11T08:22:50.544Z,32.72
2022-10-11T08:23:49.416Z,31.55
2022-10-11T08:24:46.287Z,32.30
2022-10-11T08:25:49.599Z,40.00
2022-10-11T08:26:48.700Z,38.08
2022-10-11T08:27:45.433Z,29.63
2022-10-11T08:28:42.130Z,31.27
2022-10-11T08:29:39.005Z,30.42
2022-10-11T08:30:36.448Z,31.83
2022-10-11T08:31:35.394Z,35.88
2022-10-11T08:32:32.120Z,32.30
2022-10-11T08:33:28.880Z,36.15
2022-10-11T08:34:25.573Z,30.42
2022-10-11T08:35:22.183Z,36.92
2022-10-11T08:36:19.046Z,33.15
2022-10-11T08:37:15.872Z,26.85
2022-10-11T08:38:13.045Z,27.95
2022-10-11T08:39:09.637Z,31.65
2022-10-11T08:40:07.169Z,29.70
2022-10-11T08:41:14.627Z,32.00
2022-10-11T08:42:19.036Z,28.80
2022-10-11T08:43:44.627Z,38.15
2022-10-11T08:45:22.907Z,50.78
2022-10-11T08:46:12.156Z,83.15
2022-10-11T08:47:16.293Z,157.20
2022-10-11T08:48:18.595Z,158.27
2022-10-11T08:49:19.330Z,68.13
2022-10-11T08:50:20.365Z,151.27
2022-10-11T08:51:33.825Z,105.85
2022-10-11T08:52:48.439Z,44.15
2022-10-11T08:53:48.018Z,44.22
2022-10-11T08:54:50.291Z,57.08
2022-10-11T08:55:51.261Z,61.22
2022-10-11T08:56:48.586Z,85.95
2022-10-11T08:57:52.535Z,60.97
2022-10-11T08:58:58.146Z,58.63
2022-10-11T09:00:01.208Z,53.45
2022-10-11T09:00:59.402Z,70.75
2022-10-11T09:02:12.397Z,97.82
2022-10-11T09:03:39.153Z,50.05
2022-10-11T09:04:35.856Z,103.45
2022-10-11T09:05:35.668Z,121.30
2022-10-11T09:06:39.747Z,68.07
2022-10-11T09:08:13.692Z,70.18
2022-10-11T09:09:39.921Z,43.50
2022-10-11T09:10:51.766Z,35.38
2022-10-11T09:12:00.627Z,37.63
2022-10-11T09:13:30.928Z,37.05
2022-10-11T09:14:36.642Z,35.05
2022-10-11T09:15:48.382Z,96.47
2022-10-11T09:16:55.310Z,59.42
2022-10-11T09:17:51.956Z,93.95
2022-10-11T09:19:12.469Z,73.72
2022-10-11T09:20:41.389Z,43.42
2022-10-11T09:22:07.207Z,30.38
2022-10-11T09:23:32.997Z,57.20
2022-10-11T09:24:32.204Z,60.92
2022-10-11T09:25:49.458Z,41.75
2022-10-11T09:27:15.540Z,35.75
2022-10-11T09:28:22.022Z,28.45
2022-10-11T09:29:37.172Z,33.65
2022-10-11T09:30:35.973Z,30.25
2022-10-11T09:31:33.483Z,29.67
2022-10-11T09:32:39.466Z,26.55
2022-10-11T09:33:50.711Z,26.65
2022-10-11T09:34:55.921Z,25.52
2022-10-11T09:35:52.924Z,29.85
2022-10-11T09:37:18.451Z,23.17
2022-10-11T09:38:52.361Z,29.23
2022-10-11T09:40:06.387Z,29.75
2022-10-11T09:41:15.516Z,35.28
2022-10-11T09:42:12.535Z,27.92
2022-10-11T09:43:09.544Z,25.55
2022-10-11T09:44:07.677Z,27.75
2022-10-11T09:45:20.815Z,26.60
2022-10-11T09:46:32.488Z,30.23
2022-10-11T09:47:40.866Z,32.92
2022-10-11T09:48:41.395Z,29.08
2022-10-11T09:49:42.787Z,42.00
2022-10-11T09:50:39.591Z,30.33
2022-10-11T09:51:36.931Z,30.02
2022-10-11T09:52:33.735Z,25.50
2022-10-11T09:53:53.664Z,26.00
2022-10-11T09:54:54.508Z,27.80
2022-10-11T09:56:04.475Z,26.20
2022-10-11T09:57:02.296Z,30.75
2022-10-11T09:57:59.395Z,28.40
2022-10-11T09:59:18.784Z,27.63
2022-10-11T10:00:24.969Z,31.15
2022-10-11T10:01:26.301Z,25.42
2022-10-11T10:02:26.137Z,29.08
2022-10-11T10:03:32.120Z,29.63
2022-10-11T10:04:28.818Z,27.33
2022-10-11T10:05:34.236Z,27.70
2022-10-11T10:06:30.816Z,25.05
2022-10-11T10:07:30.255Z,25.65
2022-10-11T10:08:29.716Z,29.08
2022-10-11T10:09:30.442Z,27.45
2022-10-11T10:10:39.099Z,26.80
2022-10-11T10:11:38.850Z,31.48
2022-10-11T10:12:35.479Z,42.00
2022-10-11T10:13:51.442Z,34.13
2022-10-11T10:15:08.017Z,31.52
2022-10-11T10:16:05.716Z,40.65
2022-10-11T10:17:13.653Z,30.52
2022-10-11T10:18:37.515Z,29.80
2022-10-11T10:19:45.401Z,33.67
2022-10-11T10:20:52.097Z,31.23
2022-10-11T10:21:52.232Z,41.22
2022-10-11T10:22:49.533Z,53.28
2022-10-11T10:23:54.864Z,32.22
2022-10-11T10:24:52.081Z,27.42
2022-10-11T10:25:51.459Z,23.60
2022-10-11T10:27:10.467Z,33.15
2022-10-11T10:28:23.279Z,29.02
2022-10-11T10:29:21.115Z,26.67
2022-10-11T10:30:19.509Z,26.65
2022-10-11T10:31:49.580Z,28.52
2022-10-11T10:32:55.027Z,30.60
2022-10-11T10:33:54.412Z,26.67
2022-10-11T10:35:08.384Z,31.42
2022-10-11T10:36:18.780Z,32.58
2022-10-11T10:37:50.655Z,36.58
2022-10-11T10:39:01.675Z,25.98
2022-10-11T10:40:14.377Z,25.63
2022-10-11T10:41:14.360Z,36.50
2022-10-11T10:42:15.680Z,26.98
2022-10-11T10:43:27.756Z,28.52
2022-10-11T10:44:24.358Z,27.02
2022-10-11T10:45:28.368Z,25.48
2022-10-11T10:46:37.073Z,30.17
2022-10-11T10:48:11.222Z,27.77
2022-10-11T10:49:48.889Z,22.42
2022-10-11T10:50:48.400Z,31.23
2022-10-11T10:52:05.596Z,32.53
2022-10-11T10:53:20.865Z,28.98
2022-10-11T10:54:59.385Z,26.73
2022-10-11T10:56:11.084Z,24.02
2022-10-11T10:57:24.865Z,30.95
2022-10-11T10:58:42.645Z,29.95
2022-10-11T10:59:42.285Z,22.77
2022-10-11T11:00:46.657Z,30.98
2022-10-11T11:02:15.883Z,34.83
2022-10-11T11:03:24.198Z,26.00
2022-10-11T11:04:34.216Z,28.20
2022-10-11T11:05:55.531Z,28.08
2022-10-11T11:07:02.499Z,20.55
2022-10-11T11:08:05.220Z,25.20
2022-10-11T11:09:37.299Z,24.70
2022-10-11T11:10:53.711Z,23.33
2022-10-11T11:11:50.273Z,22.95
2022-10-11T11:13:24.243Z,23.38
2022-10-11T11:15:05.869Z,26.63
2022-10-11T11:16:19.360Z,20.73
2022-10-11T11:17:30.216Z,21.85
2022-10-11T11:18:38.293Z,23.35
2022-10-11T11:20:22.178Z,46.85
2022-10-11T11:21:30.959Z,21.73
2022-10-11T11:22:46.027Z,25.60
2022-10-11T11:24:06.021Z,21.17
2022-10-11T11:25:26.752Z,20.08
2022-10-11T11:26:48.774Z,24.48
2022-10-11T11:28:03.475Z,25.77
2022-10-11T11:29:57.332Z,23.10
2022-10-11T11:31:26.769Z,36.78
2022-10-11T11:32:45.937Z,21.85
2022-10-11T11:34:04.469Z,27.75
2022-10-11T11:35:09.817Z,27.58
2022-10-11T11:36:13.927Z,28.73
2022-10-11T11:37:26.011Z,21.77
2022-10-11T11:38:51.671Z,27.55
2022-10-11T11:39:53.961Z,25.88
2022-10-11T11:40:58.183Z,28.13
2022-10-11T11:42:18.624Z,27.00
2022-10-11T11:43:26.258Z,31.38
2022-10-11T11:44:32.751Z,26.60
2022-10-11T11:45:51.635Z,36.95
2022-10-11T11:46:56.429Z,26.15
2022-10-11T11:48:02.807Z,21.35
2022-10-11T11:49:06.853Z,25.42
2022-10-11T11:50:09.169Z,25.30
2022-10-11T11:51:11.522Z,27.48
2022-10-11T11:52:14.943Z,28.38
2022-10-11T11:53:18.271Z,23.35
2022-10-11T11:54:49.608Z,19.92
2022-10-11T11:56:13.038Z,22.58
2022-10-11T11:57:15.456Z,20.75
2022-10-11T11:59:32.346Z,28.02
2022-10-11T12:00:54.824Z,19.83
2022-10-11T12:02:03.561Z,21.95
2022-10-11T12:03:10.865Z,24.90
2022-10-11T12:04:37.807Z,28.65
2022-10-11T12:05:36.219Z,26.33
2022-10-11T12:06:40.278Z,21.92
2022-10-11T12:08:04.475Z,24.85
2022-10-11T12:09:05.716Z,24.70
2022-10-11T12:10:19.206Z,23.75
2022-10-11T12:11:39.840Z,24.83
2022-10-11T12:12:38.189Z,27.55
2022-10-11T12:13:37.835Z,36.38
2022-10-11T12:14:38.484Z,22.15
2022-10-11T12:15:36.489Z,22.60
2022-10-11T12:16:34.162Z,28.00
2022-10-11T12:17:31.711Z,23.02
2022-10-11T12:18:30.928Z,25.17
2022-10-11T12:19:27.599Z,34.15
2022-10-11T12:20:38.116Z,23.80
2022-10-11T12:21:39.874Z,28.70
2022-10-11T12:22:42.706Z,21.52
2022-10-11T12:23:44.275Z,28.80
2022-10-11T12:25:22.407Z,26.77
2022-10-11T12:26:28.048Z,24.98
2022-10-11T12:27:36.514Z,24.52
2022-10-11T12:28:42.454Z,42.20
2022-10-11T12:29:43.756Z,34.00
2022-10-11T12:30:50.808Z,24.55
2022-10-11T12:31:59.162Z,28.33
2022-10-11T12:33:13.447Z,32.10
2022-10-11T12:34:09.993Z,25.30
2022-10-11T12:35:48.669Z,27.02
2022-10-11T12:36:47.851Z,23.70
2022-10-11T12:37:51.508Z,24.95
2022-10-11T12:39:20.289Z,27.60
2022-10-11T12:40:36.027Z,32.80
2022-10-11T12:41:55.237Z,83.18
2022-10-11T12:43:36.290Z,38.33
2022-10-11T12:44:33.003Z,68.82
2022-10-11T12:45:32.681Z,41.10
2022-10-11T12:46:29.342Z,38.85
2022-10-11T12:47:45.785Z,40.25
2022-10-11T12:49:21.190Z,26.05
2022-10-11T12:50:23.601Z,30.60
2022-10-11T12:51:20.182Z,24.52
2022-10-11T12:52:16.868Z,27.38
2022-10-11T12:53:31.425Z,24.58
2022-10-11T12:54:43.164Z,26.98
2022-10-11T12:55:48.557Z,39.35
2022-10-11T12:57:11.871Z,45.40
2022-10-11T12:58:41.666Z,44.78
2022-10-11T12:59:44.652Z,28.05
2022-10-11T13:01:03.434Z,27.77
2022-10-11T13:02:00.604Z,23.20
2022-10-11T13:03:00.943Z,31.27
2022-10-11T13:04:19.003Z,29.35
2022-10-11T13:05:24.715Z,26.80
2022-10-11T13:06:33.916Z,27.40
2022-10-11T13:07:31.438Z,26.95
2022-10-11T13:08:34.548Z,28.55
2022-10-11T13:09:39.331Z,20.92
2022-10-11T13:10:42.548Z,23.58
2022-10-11T13:11:46.512Z,25.63
2022-10-11T13:12:46.708Z,20.40
2022-10-11T13:14:08.814Z,30.08
2022-10-11T13:15:12.809Z,27.73
2022-10-11T13:16:16.178Z,42.72
2022-10-11T13:17:19.440Z,39.75
2022-10-11T13:18:17.641Z,37.10
2022-10-11T13:19:14.728Z,32.90
2022-10-11T13:20:17.592Z,32.58
2022-10-11T13:21:25.851Z,29.30
2022-10-11T13:22:23.921Z,27.83
2022-10-11T13:23:25.052Z,27.23
2022-10-11T13:24:23.233Z,30.05
2022-10-11T13:25:26.222Z,24.55
2022-10-11T13:26:23.149Z,26.88
2022-10-11T13:27:23.009Z,27.58